Latest Coastal Weather Observations for Ceduna

IDS60701

Issued at 12:45 pm CST Saturday 26 July 2014 (issued every 10 minutes, with the page automatically refreshed every 10 minutes)

About coastal observations | Map of coastal stations | Coastal observations for SA | Marine services | Other Formats
Station Details ID: 018012 Name: CEDUNA AMO Lat: -32.13 Lon: 133.70 Height: 15.3 m
Data from the previous 72 hours. | See also: Recent months at Ceduna
Date/Time
CST
Temp

°C
Wind Pressure Rain
since 9am
mm
Weather Cloud Vis
km
Sea
Height
m
Swell
Dir
 
Speed
knots
Gust
knots
hPa Trend Height
m
Period
s
Dir
26/12:30pm 17.6 N 11 15 1026.1 - 0.0 - Partly cloudy 10 - - - -
26/12:00pm 17.2 N 12 15 1026.7 F 0.0 - - 10 - - - -
26/11:30am 16.9 N 10 13 1027.3 - 0.0 - - 10 - - - -
26/11:00am 15.8 N 11 14 1027.7 - 0.0 - - 10 - - - -
26/10:30am 15.1 N 11 13 1027.9 - 0.0 - - 10 - - - -
26/10:00am 13.9 N 10 13 1028.0 - 0.0 - - 10 - - - -
26/09:30am 12.5 N 6 9 1027.9 - 0.0 - - 10 - - - -
26/09:00am 11.0 NNE 3 5 1027.9 R 0.2 - - 10 - - - -
26/08:30am 8.1 NNE 6 7 1027.6 - 0.2 - - 10 - - - -
26/08:00am 6.2 NNE 6 7 1027.5 - 0.2 - - 10 - - - -
26/07:30am 5.7 NNE 6 7 1027.3 - 0.2 - - 10 - - - -
26/07:00am 4.8 N 5 7 1027.1 - 0.2 - - 10 - - - -
26/06:30am 3.9 NNE 5 6 1026.7 - 0.2 - - 10 - - - -
26/06:00am 3.7 NNE 5 6 1026.3 R 0.2 - - 10 - - - -
26/05:30am 3.5 N 4 5 1026.1 - 0.2 - - 10 - - - -
26/05:00am 3.5 N 4 5 1026.0 - 0.2 - - 10 - - - -
26/04:30am 4.5 NE 4 5 1025.9 - 0.2 - - 10 - - - -
26/04:00am 4.2 NE 4 5 1025.6 - 0.2 - - 10 - - - -
26/03:30am 4.2 NE 5 6 1025.6 - 0.2 - - 10 - - - -
26/03:00am 5.1 NE 5 6 1025.4 R 0.2 - - 10 - - - -
26/02:30am 5.2 NE 5 7 1025.6 - 0.2 - - 10 - - - -
26/02:00am 5.5 N 4 5 1025.6 - 0.2 - - 10 - - - -
26/01:30am 5.7 N 5 5 1025.7 - 0.2 - - 10 - - - -
26/01:00am 5.8 NNE 4 5 1025.8 - 0.2 - - 10 - - - -
26/12:30am 6.5 N 5 6 1025.9 - 0.2 - - 10 - - - -
26/12:26am 6.6 N 5 6 1025.9 - 0.2 - - 10 - - - -
26/12:08am 6.1 N 4 5 1025.8 - 0.2 - - 4 - - - -
26/12:00am 5.9 N 4 5 1025.8 R 0.2 - - 10 - - - -
 
Date/Time
CST
Temp

°C
Wind Pressure Rain
since 9am
mm
Weather Cloud Vis
km
Sea
Height
m
Swell
Dir
 
Speed
knots
Gust
knots
hPa Trend Height
m
Period
s
Dir
25/11:30pm 6.3 N 5 5 1025.6 - 0.2 - - 10 - - - -
25/11:00pm 6.5 N 4 5 1025.8 - 0.2 - - 10 - - - -
25/10:30pm 6.6 N 4 4 1025.7 - 0.2 - - 10 - - - -
25/10:00pm 7.3 N 4 5 1025.6 - 0.2 - - 10 - - - -
25/09:30pm 6.6 N 4 4 1025.3 - 0.2 - - 10 - - - -
25/09:00pm 7.8 N 4 5 1025.0 R 0.2 - - 10 - - - -
25/08:30pm 8.3 W 4 5 1024.7 - 0.2 - - 10 - - - -
25/08:00pm 8.1 CALM 0 0 1024.3 - 0.2 - - 10 - - - -
25/07:30pm 8.7 CALM 0 2 1024.0 - 0.2 - - 10 - - - -
25/07:00pm 11.1 NNW 4 5 1023.9 - 0.2 - - 10 - - - -
25/06:30pm 11.9 NW 3 4 1023.7 - 0.2 - - 10 - - - -
25/06:00pm 12.1 NW 4 4 1023.3 R 0.2 - - 10 - - - -
25/05:30pm 13.2 NW 5 7 1022.8 - 0.2 - - 10 - - - -
25/05:00pm 14.8 WSW 6 8 1022.5 - 0.2 - Partly cloudy 10 - - - -
25/04:30pm 14.5 WSW 7 10 1022.2 - 0.2 - Cloudy 10 - - - -
25/04:00pm 14.6 W 9 12 1022.0 - 0.2 - Partly cloudy 10 - - - -
25/03:30pm 14.9 WSW 10 12 1021.7 - 0.2 - Partly cloudy 10 - - - -
25/03:00pm 15.9 SW 9 11 1021.5 R 0.2 - - 10 - - - -
25/02:30pm 15.4 SW 9 11 1021.3 - 0.2 - Partly cloudy 10 - - - -
25/02:00pm 14.5 SW 8 11 1021.1 - 0.2 - Partly cloudy 10 - - - -
25/01:30pm 15.4 SW 9 12 1021.2 - 0.2 - - 10 - - - -
25/01:00pm 16.2 W 7 9 1021.3 - 0.2 - - 10 - - - -
25/12:30pm 15.8 W 7 9 1021.5 - 0.2 - - 10 - - - -
25/12:00pm 15.3 WNW 8 10 1021.8 R 0.2 - - 10 - - - -
25/11:30am 15.2 WNW 9 12 1021.8 - 0.2 - Partly cloudy 10 - - - -
25/11:00am 14.6 WNW 9 12 1021.9 - 0.2 - - 10 - - - -
25/10:30am 14.1 NW 9 12 1021.7 - 0.2 - - 10 - - - -
25/10:00am 12.9 NW 9 12 1021.6 - 0.0 - - 10 - - - -
25/09:30am 11.9 NW 8 11 1021.5 - 0.0 - Partly cloudy 10 - - - -
25/09:00am 10.4 NW 7 9 1021.2 R 0.8 - Partly cloudy 10 - - - -
25/08:30am 9.1 NNW 7 8 1020.7 - 0.8 - Partly cloudy 10 - - - -
25/08:00am 8.6 NW 7 8 1020.3 - 0.8 - - 10 - - - -
25/07:30am 8.4 NW 7 9 1019.8 - 0.8 - Partly cloudy 10 - - - -
25/07:00am 8.8 NW 7 9 1019.4 - 0.8 - Cloudy 10 - - - -
25/06:30am 8.1 NW 5 6 1018.9 - 0.8 - Partly cloudy 10 - - - -
25/06:00am 8.0 NNW 6 7 1018.5 R 0.8 - - 10 - - - -
25/05:30am 8.2 NW 6 8 1018.0 - 0.8 - - 10 - - - -
25/05:00am 8.4 NNW 6 8 1017.7 - 0.8 - Partly cloudy 10 - - - -
25/04:30am 8.8 NW 6 9 1017.6 - 0.8 - - 10 - - - -
25/04:00am 9.0 NNW 6 9 1017.6 - 0.8 - Partly cloudy 10 - - - -
25/03:30am 9.4 N 5 6 1017.3 - 0.8 - Partly cloudy 10 - - - -
25/03:00am 9.5 NNW 4 5 1017.1 R 0.8 - Cloudy 10 - - - -
25/02:30am 9.8 NNW 5 6 1016.9 - 0.8 - Partly cloudy 10 - - - -
25/02:00am 10.6 NW 8 11 1016.9 - 0.8 - Partly cloudy 10 - - - -
25/01:30am 11.2 WNW 12 16 1016.9 - 0.8 - Partly cloudy 10 - - - -
25/01:00am 11.2 WNW 10 15 1016.9 - 0.8 - Partly cloudy 10 - - - -
25/12:43am 11.2 NW 9 14 1016.9 - 0.8 - Partly cloudy 10 - - - -
25/12:32am 11.2 NW 10 16 1016.9 - 0.8 - Partly cloudy 9 - - - -
25/12:30am 11.3 NW 11 16 1017.0 - 0.8 - Partly cloudy 9 - - - -
25/12:00am 11.3 NW 10 15 1017.1 R 0.6 - Cloudy 10 - - - -
 
Date/Time
CST
Temp

°C
Wind Pressure Rain
since 9am
mm
Weather Cloud Vis
km
Sea
Height
m
Swell
Dir
 
Speed
knots
Gust
knots
hPa Trend Height
m
Period
s
Dir
24/11:30pm 11.1 NNW 7 9 1016.8 - 0.6 - Partly cloudy 10 - - - -
24/11:00pm 10.9 N 6 7 1016.7 - 0.6 - Partly cloudy 10 - - - -
24/10:30pm 10.9 N 6 7 1016.6 - 0.6 - Partly cloudy 10 - - - -
24/10:00pm 10.4 N 6 7 1016.4 - 0.6 - Partly cloudy 10 - - - -
24/09:30pm 9.8 N 5 6 1016.2 - 0.6 - Partly cloudy 10 - - - -
24/09:00pm 9.2 N 5 6 1016.0 R 0.6 - Mostly clear 10 - - - -
24/08:30pm 10.1 NNW 6 7 1015.8 - 0.6 - - 10 - - - -
24/08:00pm 11.0 NNW 6 7 1015.6 - 0.6 - Partly cloudy 10 - - - -
24/07:30pm 11.6 NNW 6 7 1015.4 - 0.6 - Cloudy 10 - - - -
24/07:00pm 12.3 NW 6 9 1015.1 - 0.6 - Partly cloudy 10 - - - -
24/06:30pm 13.3 WNW 7 9 1014.7 - 0.6 - Cloudy 10 - - - -
24/06:00pm 13.2 W 8 11 1014.3 R 0.6 - Mostly clear 10 - - - -
24/05:30pm 14.2 W 10 15 1014.0 - 0.6 - Partly cloudy 10 - - - -
24/05:00pm 15.0 W 7 10 1013.7 - 0.6 - Partly cloudy 10 - - - -
24/04:30pm 15.2 W 8 11 1013.6 - 0.6 - Partly cloudy 10 - - - -
24/04:00pm 14.8 WNW 9 12 1013.6 - 0.6 - Partly cloudy 10 - - - -
24/03:30pm 14.9 W 13 16 1013.2 - 0.6 - Partly cloudy 10 - - - -
24/03:00pm 15.9 WNW 11 16 1013.1 R 0.6 Distant precip. Mostly cloudy 20 - - - -
24/02:30pm 16.0 NW 11 15 1013.1 - 0.6 - Mostly clear 10 - - - -
24/02:00pm 14.7 WNW 11 18 1013.0 - 0.6 - Mostly clear 10 - - - -
24/01:30pm 15.9 WNW 12 18 1013.2 - 0.6 - Mostly clear 10 - - - -
24/01:00pm 15.6 NW 8 11 1013.3 - 0.4 - Mostly clear 10 - - - -
24/12:30pm 13.8 WNW 11 16 1013.6 - 0.4 - Mostly clear 10 - - - -
24/12:00pm 16.9 WNW 11 15 1014.1 R 0.0 Distant precip. Mostly cloudy 20 - - - -
24/11:30am 16.0 NW 11 16 1014.4 - 0.0 - Mostly clear 10 - - - -
24/11:00am 14.9 NW 11 16 1014.4 - 0.0 - Mostly clear 10 - - - -
24/10:30am 13.4 NW 9 13 1014.3 - 0.0 - Mostly clear 10 - - - -
24/10:00am 13.2 NW 9 13 1014.3 - 0.0 - Partly cloudy 10 - - - -
24/09:30am 13.4 NW 11 16 1013.8 - 0.0 - Partly cloudy 10 - - - -
24/09:20am 13.3 NW 10 14 1013.5 - 0.0 - Partly cloudy 10 - - - -
24/09:00am 12.6 WNW 10 15 1013.6 R 6.6 Showers Mostly cloudy 15 - - - -
24/08:30am 12.1 WNW 13 17 1013.3 - 6.6 - Mostly cloudy 9 - - - -
24/08:00am 11.9 NW 10 13 1012.9 - 6.6 Showers Partly cloudy 10 - - - -
24/07:51am 11.8 NW 10 14 1012.9 - 6.4 Showers Partly cloudy 9 - - - -
24/07:30am 11.7 WNW 10 15 1012.7 - 6.4 - Partly cloudy 9 - - - -
24/07:00am 11.8 WNW 9 12 1012.6 - 5.8 - Partly cloudy 10 - - - -
24/06:30am 12.0 WNW 9 11 1012.3 - 5.8 - Partly cloudy 10 - - - -
24/06:00am 12.1 NW 12 17 1012.0 R 5.4 Showers Mostly cloudy 15 - - - -
24/05:30am 11.9 NW 13 17 1011.8 - 5.4 - Partly cloudy 10 - - - -
24/05:00am 11.9 NW 13 19 1011.6 - 5.4 - Partly cloudy 10 - - - -
24/04:30am 11.9 WNW 14 17 1011.4 - 5.4 - Partly cloudy 10 - - - -
24/04:00am 11.7 WNW 13 16 1011.1 - 5.4 - Partly cloudy 10 - - - -
24/03:30am 11.8 WNW 12 16 1010.8 - 5.4 - Partly cloudy 10 - - - -
24/03:00am 11.9 WNW 11 15 1010.7 R 5.4 - Mostly cloudy 10 - - - -
24/02:30am 11.9 NW 11 14 1010.9 - 5.4 - Partly cloudy 10 - - - -
24/02:00am 11.9 WNW 11 13 1010.5 - 5.4 - Partly cloudy 10 - - - -
24/01:30am 12.1 NW 11 13 1010.3 - 5.4 - Partly cloudy 10 - - - -
24/01:00am 12.0 NW 11 14 1010.2 - 5.4 - Partly cloudy 10 - - - -
24/12:30am 12.2 WNW 12 15 1010.1 - 5.4 - Partly cloudy 10 - - - -
24/12:00am 12.4 WNW 13 18 1010.1 R 5.4 - Partly cloudy 10 - - - -
 
Date/Time
CST
Temp

°C
Wind Pressure Rain
since 9am
mm
Weather Cloud Vis
km
Sea
Height
m
Swell
Dir
 
Speed
knots
Gust
knots
hPa Trend Height
m
Period
s
Dir
23/11:30pm 12.8 WNW 16 22 1010.0 - 5.4 - Partly cloudy 10 - - - -
23/11:00pm 12.6 NW 15 19 1009.6 - 5.4 - Partly cloudy 10 - - - -
23/10:30pm 12.4 NW 15 20 1009.4 - 5.4 - Partly cloudy 10 - - - -
23/10:00pm 12.9 NW 11 15 1009.6 - 5.4 - Partly cloudy 10 - - - -
23/09:30pm 13.0 W 17 22 1009.4 - 5.2 - Partly cloudy 10 - - - -
23/09:15pm 13.1 W 13 22 1009.4 - 5.2 - Partly cloudy 10 - - - -
23/09:00pm 13.0 WNW 17 24 1009.2 R 5.2 Rain Mostly cloudy 5 - - - -
23/08:59pm 13.1 WNW 17 24 1009.2 - 5.2 - Partly cloudy 5 - - - -
23/08:30pm 13.8 W 19 26 1008.8 - 4.2 - Partly cloudy 10 - - - -
23/08:00pm 13.6 WNW 17 22 1008.2 - 4.2 - Partly cloudy 10 - - - -
23/07:30pm 13.6 W 19 28 1007.6 - 4.2 - Partly cloudy 10 - - - -
23/07:00pm 13.1 WNW 15 28 1007.2 - 4.2 - Partly cloudy 10 - - - -
23/06:38pm 12.8 NW 16 25 1006.7 - 4.2 - Partly cloudy 10 - - - -
23/06:30pm 12.8 NW 16 25 1006.5 - 4.2 - Partly cloudy 6 - - - -
23/06:28pm 12.8 NW 16 21 1006.5 - 4.2 - Partly cloudy 5 - - - -
23/06:00pm 13.1 WNW 17 27 1006.0 R 4.0 Recent precip. Cloudy 10 - - - -
23/05:57pm 13.0 WNW 17 27 1005.9 - 4.0 - Partly cloudy 10 - - - -
23/05:30pm 12.9 NW 18 25 1005.6 - 4.0 - Partly cloudy 10 - - - -
23/05:10pm 12.3 NNW 15 25 1005.3 - 3.6 - Partly cloudy 8 - - - -
23/05:04pm 12.2 NNW 16 21 1005.4 - 3.4 - Partly cloudy 7 - - - -
23/05:01pm 12.1 NNW 16 21 1005.4 - 3.4 - Partly cloudy 8 - - - -
23/05:00pm 12.1 NNW 17 22 1005.4 - 3.4 - Partly cloudy 8 - - - -
23/04:50pm 11.9 NNW 16 24 1005.3 - 3.2 - Partly cloudy 10 - - - -
23/04:37pm 11.7 N 19 26 1005.3 - 3.0 - Partly cloudy 10 - - - -
23/04:30pm 11.7 NNW 18 26 1005.2 - 3.0 - Partly cloudy 10 - - - -
23/04:27pm 11.7 NNW 19 26 1005.2 - 3.0 - Partly cloudy 9 - - - -
23/04:21pm 11.7 NNW 20 27 1005.2 - 3.0 - Partly cloudy 7 - - - -
23/04:09pm 11.8 NNW 21 28 1005.2 - 3.0 - Partly cloudy 5 - - - -
23/04:07pm 11.7 NNW 22 32 1005.2 - 3.0 - Partly cloudy 6 - - - -
23/04:00pm 12.2 N 24 32 1005.2 - 3.0 - Partly cloudy 10 - - - -
23/03:30pm 13.0 NNW 26 36 1005.3 - 3.0 - Partly cloudy 10 - - - -
23/03:00pm 14.2 NNW 21 31 1005.3 F 3.0 Distant precip. Cloudy 18 - - - -
23/02:31pm 14.4 NNW 23 33 1005.4 - 3.0 - Partly cloudy 10 - - - -
23/02:30pm 14.4 NNW 23 31 1005.4 - 3.0 - Partly cloudy 10 - - - -
23/02:00pm 15.0 NNW 20 31 1005.6 - 3.0 - Mostly cloudy 10 - - - -
23/01:30pm 15.5 NW 23 33 1005.8 - 3.0 - Mostly cloudy 10 - - - -
23/01:00pm 16.1 NW 22 32 1006.1 - 3.0 - Partly cloudy 10 - - - -
23/12:52pm 16.2 NNW 18 31 1006.2 - 3.0 - Partly cloudy 10 - - - -

Other Formats:

Comma delimited format used in spreadsheet applications
http://www.bom.gov.au/fwo/IDS60701/IDS60701.94653.axf

JavaScript Object Notation format (JSON) in row-major order
http://www.bom.gov.au/fwo/IDS60701/IDS60701.94653.json